Aviation Digital Data Service (ADDS)

Output produced by METARs form (0047 UTC 24 May 2019)
found at http://www.aviationweather.gov/metar/data/
 
OJAQ 240000Z 00000KT CAVOK 30/04 Q1008 NOSIG
TAF OJAQ 232300Z 2400/2506 18012KT 6000 NSC 
     PROB30 
     TEMPO 2410/2415 20020KT 3000 BLDU
       
OJAM 240000Z 26005KT 4000 DU NSC 27/05 Q1015 NOSIG
TAF OJAM 232300Z 2400/2506 VRB01KT 5000 HZ NSC 
     BECMG 2408/2410 23014KT 
     PROB30 
     TEMPO 2410/2415 22018KT 3000 BLDU 
     BECMG 2416/2418 28010KT
       
OJAI 240000Z 00000KT 6000 NSC 22/01 Q1014 NOSIG
TAF OJAI 232300Z 2400/2506 VRB01KT 6000 NSC 
     BECMG 2408/2410 23014KT 
     PROB30 
     TEMPO 2410/2415 22020KT 3000 BLDU 
     BECMG 2416/2418 28012KT